sensor_id;sensor_type;location;lat;lon;timestamp;P1;durP1;ratioP1;P2;durP2;ratioP2
17997;SDS011;9124;48.144;17.098;2023-12-20T00:02:08;547.05;;;67.55;;
17997;SDS011;9124;48.144;17.098;2023-12-20T00:06:34;333.02;;;60.33;;
17997;SDS011;9124;48.144;17.098;2023-12-20T00:11:02;267.77;;;53.97;;
17997;SDS011;9124;48.144;17.098;2023-12-20T00:15:28;242.30;;;54.90;;
17997;SDS011;9124;48.144;17.098;2023-12-20T00:19:54;543.75;;;67.18;;
17997;SDS011;9124;48.144;17.098;2023-12-20T00:24:20;329.30;;;61.15;;
17997;SDS011;9124;48.144;17.098;2023-12-20T00:28:47;370.02;;;64.78;;
17997;SDS011;9124;48.144;17.098;2023-12-20T00:33:13;515.17;;;75.22;;
17997;SDS011;9124;48.144;17.098;2023-12-20T00:37:40;544.25;;;77.57;;
17997;SDS011;9124;48.144;17.098;2023-12-20T00:42:06;471.23;;;69.80;;
17997;SDS011;9124;48.144;17.098;2023-12-20T00:46:33;375.00;;;59.97;;
17997;SDS011;9124;48.144;17.098;2023-12-20T00:50:59;429.75;;;64.55;;
17997;SDS011;9124;48.144;17.098;2023-12-20T00:55:25;475.02;;;70.57;;
17997;SDS011;9124;48.144;17.098;2023-12-20T00:59:51;291.70;;;54.78;;
17997;SDS011;9124;48.144;17.098;2023-12-20T01:04:18;343.65;;;59.78;;
17997;SDS011;9124;48.144;17.098;2023-12-20T01:08:45;332.98;;;62.88;;
17997;SDS011;9124;48.144;17.098;2023-12-20T01:13:11;480.15;;;62.75;;
17997;SDS011;9124;48.144;17.098;2023-12-20T01:17:37;291.48;;;50.35;;
17997;SDS011;9124;48.144;17.098;2023-12-20T01:22:04;410.48;;;65.07;;
17997;SDS011;9124;48.144;17.098;2023-12-20T01:26:33;392.98;;;66.10;;
17997;SDS011;9124;48.144;17.098;2023-12-20T01:30:59;351.08;;;57.10;;
17997;SDS011;9124;48.144;17.098;2023-12-20T01:35:30;290.15;;;55.60;;
17997;SDS011;9124;48.144;17.098;2023-12-20T01:39:56;583.22;;;78.57;;
17997;SDS011;9124;48.144;17.098;2023-12-20T01:44:24;324.05;;;54.15;;
17997;SDS011;9124;48.144;17.098;2023-12-20T01:48:50;414.88;;;62.65;;
17997;SDS011;9124;48.144;17.098;2023-12-20T01:53:19;306.38;;;56.35;;
17997;SDS011;9124;48.144;17.098;2023-12-20T01:57:47;354.17;;;59.92;;
17997;SDS011;9124;48.144;17.098;2023-12-20T02:02:16;413.33;;;57.63;;
17997;SDS011;9124;48.144;17.098;2023-12-20T02:06:43;292.73;;;60.20;;
17997;SDS011;9124;48.144;17.098;2023-12-20T02:11:12;380.10;;;55.45;;
17997;SDS011;9124;48.144;17.098;2023-12-20T02:15:38;275.40;;;55.25;;
17997;SDS011;9124;48.144;17.098;2023-12-20T02:20:07;327.80;;;57.15;;
17997;SDS011;9124;48.144;17.098;2023-12-20T02:24:33;473.77;;;64.03;;
17997;SDS011;9124;48.144;17.098;2023-12-20T02:29:00;533.50;;;60.95;;
17997;SDS011;9124;48.144;17.098;2023-12-20T02:33:26;570.72;;;73.25;;
17997;SDS011;9124;48.144;17.098;2023-12-20T02:37:54;261.52;;;52.70;;
17997;SDS011;9124;48.144;17.098;2023-12-20T02:42:20;243.93;;;55.13;;
17997;SDS011;9124;48.144;17.098;2023-12-20T02:46:48;538.33;;;66.28;;
17997;SDS011;9124;48.144;17.098;2023-12-20T02:51:14;494.85;;;66.88;;
17997;SDS011;9124;48.144;17.098;2023-12-20T02:55:43;403.10;;;53.40;;
17997;SDS011;9124;48.144;17.098;2023-12-20T03:00:09;462.90;;;61.42;;
17997;SDS011;9124;48.144;17.098;2023-12-20T03:04:36;597.10;;;74.97;;
17997;SDS011;9124;48.144;17.098;2023-12-20T03:09:03;515.83;;;61.40;;
17997;SDS011;9124;48.144;17.098;2023-12-20T03:13:30;576.90;;;64.28;;
17997;SDS011;9124;48.144;17.098;2023-12-20T03:17:59;497.58;;;67.63;;
17997;SDS011;9124;48.144;17.098;2023-12-20T03:22:25;322.85;;;56.08;;
17997;SDS011;9124;48.144;17.098;2023-12-20T03:26:54;387.75;;;52.72;;
17997;SDS011;9124;48.144;17.098;2023-12-20T03:31:20;488.42;;;53.55;;
17997;SDS011;9124;48.144;17.098;2023-12-20T03:35:50;403.27;;;52.20;;
17997;SDS011;9124;48.144;17.098;2023-12-20T03:40:16;253.48;;;49.55;;
17997;SDS011;9124;48.144;17.098;2023-12-20T03:44:43;344.92;;;46.50;;
17997;SDS011;9124;48.144;17.098;2023-12-20T03:49:10;528.35;;;54.65;;
17997;SDS011;9124;48.144;17.098;2023-12-20T03:53:39;312.95;;;46.85;;
17997;SDS011;9124;48.144;17.098;2023-12-20T03:58:06;166.38;;;38.10;;
17997;SDS011;9124;48.144;17.098;2023-12-20T04:02:33;348.02;;;49.13;;
17997;SDS011;9124;48.144;17.098;2023-12-20T04:07:00;517.92;;;53.88;;
17997;SDS011;9124;48.144;17.098;2023-12-20T04:11:27;368.52;;;47.30;;
17997;SDS011;9124;48.144;17.098;2023-12-20T04:15:53;378.13;;;48.38;;
17997;SDS011;9124;48.144;17.098;2023-12-20T04:20:20;241.90;;;47.08;;
17997;SDS011;9124;48.144;17.098;2023-12-20T04:24:46;358.30;;;52.65;;
17997;SDS011;9124;48.144;17.098;2023-12-20T04:29:15;262.02;;;49.67;;
17997;SDS011;9124;48.144;17.098;2023-12-20T04:33:41;451.40;;;50.92;;
17997;SDS011;9124;48.144;17.098;2023-12-20T04:38:11;464.35;;;57.30;;
17997;SDS011;9124;48.144;17.098;2023-12-20T04:42:37;526.05;;;54.30;;
17997;SDS011;9124;48.144;17.098;2023-12-20T04:47:03;202.52;;;49.28;;
17997;SDS011;9124;48.144;17.098;2023-12-20T04:51:30;225.30;;;46.67;;
17997;SDS011;9124;48.144;17.098;2023-12-20T04:55:59;413.80;;;53.80;;
17997;SDS011;9124;48.144;17.098;2023-12-20T05:00:26;384.80;;;51.45;;
17997;SDS011;9124;48.144;17.098;2023-12-20T05:04:52;329.05;;;56.10;;
17997;SDS011;9124;48.144;17.098;2023-12-20T05:09:18;390.40;;;59.45;;
17997;SDS011;9124;48.144;17.098;2023-12-20T05:13:46;416.90;;;52.40;;
17997;SDS011;9124;48.144;17.098;2023-12-20T05:18:12;394.70;;;51.88;;
17997;SDS011;9124;48.144;17.098;2023-12-20T05:22:40;254.32;;;44.03;;
17997;SDS011;9124;48.144;17.098;2023-12-20T05:27:07;154.45;;;43.83;;
17997;SDS011;9124;48.144;17.098;2023-12-20T05:31:33;288.38;;;41.55;;
17997;SDS011;9124;48.144;17.098;2023-12-20T05:35:59;179.80;;;41.78;;
17997;SDS011;9124;48.144;17.098;2023-12-20T05:40:26;258.60;;;46.78;;
17997;SDS011;9124;48.144;17.098;2023-12-20T05:44:52;220.90;;;44.38;;
17997;SDS011;9124;48.144;17.098;2023-12-20T05:49:19;301.27;;;44.65;;
17997;SDS011;9124;48.144;17.098;2023-12-20T05:53:47;360.05;;;46.03;;
17997;SDS011;9124;48.144;17.098;2023-12-20T05:58:16;270.15;;;43.80;;
17997;SDS011;9124;48.144;17.098;2023-12-20T06:02:42;181.63;;;44.03;;
17997;SDS011;9124;48.144;17.098;2023-12-20T06:07:13;155.75;;;39.47;;
17997;SDS011;9124;48.144;17.098;2023-12-20T06:11:40;191.52;;;43.63;;
17997;SDS011;9124;48.144;17.098;2023-12-20T06:16:06;110.82;;;37.25;;
17997;SDS011;9124;48.144;17.098;2023-12-20T06:20:33;157.88;;;41.75;;
17997;SDS011;9124;48.144;17.098;2023-12-20T06:24:59;129.30;;;40.10;;
17997;SDS011;9124;48.144;17.098;2023-12-20T06:29:28;175.25;;;44.15;;
17997;SDS011;9124;48.144;17.098;2023-12-20T06:33:55;156.70;;;41.50;;
17997;SDS011;9124;48.144;17.098;2023-12-20T06:38:25;131.35;;;40.38;;
17997;SDS011;9124;48.144;17.098;2023-12-20T06:42:52;145.68;;;39.88;;
17997;SDS011;9124;48.144;17.098;2023-12-20T06:47:18;183.73;;;41.75;;
17997;SDS011;9124;48.144;17.098;2023-12-20T06:51:44;131.88;;;37.58;;
17997;SDS011;9124;48.144;17.098;2023-12-20T06:56:12;116.43;;;38.72;;
17997;SDS011;9124;48.144;17.098;2023-12-20T07:00:38;118.47;;;38.70;;
17997;SDS011;9124;48.144;17.098;2023-12-20T07:05:05;128.90;;;40.38;;
17997;SDS011;9124;48.144;17.098;2023-12-20T07:09:31;130.80;;;38.47;;
17997;SDS011;9124;48.144;17.098;2023-12-20T07:14:01;118.53;;;38.15;;
17997;SDS011;9124;48.144;17.098;2023-12-20T07:18:27;120.40;;;39.65;;
17997;SDS011;9124;48.144;17.098;2023-12-20T07:22:54;108.57;;;37.40;;
17997;SDS011;9124;48.144;17.098;2023-12-20T07:27:21;116.75;;;36.33;;
17997;SDS011;9124;48.144;17.098;2023-12-20T07:31:47;109.25;;;38.10;;
17997;SDS011;9124;48.144;17.098;2023-12-20T07:36:13;131.25;;;38.38;;
17997;SDS011;9124;48.144;17.098;2023-12-20T07:40:40;108.57;;;38.50;;
17997;SDS011;9124;48.144;17.098;2023-12-20T07:45:06;106.05;;;39.08;;
17997;SDS011;9124;48.144;17.098;2023-12-20T07:49:35;101.75;;;37.35;;
17997;SDS011;9124;48.144;17.098;2023-12-20T07:54:01;109.30;;;39.65;;
17997;SDS011;9124;48.144;17.098;2023-12-20T07:58:29;115.13;;;39.53;;
17997;SDS011;9124;48.144;17.098;2023-12-20T08:02:56;93.93;;;36.70;;
17997;SDS011;9124;48.144;17.098;2023-12-20T08:07:24;93.93;;;37.55;;
17997;SDS011;9124;48.144;17.098;2023-12-20T08:11:50;97.40;;;37.63;;
17997;SDS011;9124;48.144;17.098;2023-12-20T08:16:16;80.00;;;36.03;;
17997;SDS011;9124;48.144;17.098;2023-12-20T08:20:43;83.38;;;39.95;;
17997;SDS011;9124;48.144;17.098;2023-12-20T08:25:09;85.88;;;39.55;;
17997;SDS011;9124;48.144;17.098;2023-12-20T08:29:44;95.00;;;43.83;;
17997;SDS011;9124;48.144;17.098;2023-12-20T08:34:11;88.85;;;44.38;;
17997;SDS011;9124;48.144;17.098;2023-12-20T08:38:39;77.30;;;41.53;;
17997;SDS011;9124;48.144;17.098;2023-12-20T08:43:05;101.03;;;47.50;;
17997;SDS011;9124;48.144;17.098;2023-12-20T08:47:31;102.25;;;48.28;;
17997;SDS011;9124;48.144;17.098;2023-12-20T08:51:58;93.05;;;46.78;;
17997;SDS011;9124;48.144;17.098;2023-12-20T08:56:27;93.75;;;45.38;;
17997;SDS011;9124;48.144;17.098;2023-12-20T09:00:53;76.85;;;41.67;;
17997;SDS011;9124;48.144;17.098;2023-12-20T09:05:21;81.63;;;40.00;;
17997;SDS011;9124;48.144;17.098;2023-12-20T09:09:48;66.30;;;37.20;;
17997;SDS011;9124;48.144;17.098;2023-12-20T09:14:14;49.70;;;28.33;;
17997;SDS011;9124;48.144;17.098;2023-12-20T09:18:41;17.77;;;14.10;;
17997;SDS011;9124;48.144;17.098;2023-12-20T09:23:07;8.98;;;8.23;;
17997;SDS011;9124;48.144;17.098;2023-12-20T09:27:34;8.05;;;7.35;;
17997;SDS011;9124;48.144;17.098;2023-12-20T09:32:01;7.00;;;6.38;;
17997;SDS011;9124;48.144;17.098;2023-12-20T09:36:29;7.40;;;6.70;;
17997;SDS011;9124;48.144;17.098;2023-12-20T09:40:56;5.13;;;4.65;;
17997;SDS011;9124;48.144;17.098;2023-12-20T09:45:24;4.50;;;4.10;;
17997;SDS011;9124;48.144;17.098;2023-12-20T09:49:51;4.43;;;4.05;;
17997;SDS011;9124;48.144;17.098;2023-12-20T09:54:19;5.65;;;5.15;;
17997;SDS011;9124;48.144;17.098;2023-12-20T09:58:46;4.63;;;4.22;;
17997;SDS011;9124;48.144;17.098;2023-12-20T10:03:13;4.32;;;3.78;;
17997;SDS011;9124;48.144;17.098;2023-12-20T10:07:41;3.72;;;3.42;;
17997;SDS011;9124;48.144;17.098;2023-12-20T10:12:07;3.70;;;3.03;;
17997;SDS011;9124;48.144;17.098;2023-12-20T10:16:37;2.35;;;2.22;;
17997;SDS011;9124;48.144;17.098;2023-12-20T10:21:03;2.20;;;2.10;;
17997;SDS011;9124;48.144;17.098;2023-12-20T10:25:32;2.17;;;2.08;;
17997;SDS011;9124;48.144;17.098;2023-12-20T10:29:58;2.25;;;2.05;;
17997;SDS011;9124;48.144;17.098;2023-12-20T10:34:25;2.22;;;2.13;;
17997;SDS011;9124;48.144;17.098;2023-12-20T10:38:52;1.48;;;1.40;;
17997;SDS011;9124;48.144;17.098;2023-12-20T10:43:23;2.03;;;1.92;;
17997;SDS011;9124;48.144;17.098;2023-12-20T10:47:52;4.43;;;1.85;;
17997;SDS011;9124;48.144;17.098;2023-12-20T10:52:18;2.30;;;2.20;;
17997;SDS011;9124;48.144;17.098;2023-12-20T10:56:45;1.88;;;1.77;;
17997;SDS011;9124;48.144;17.098;2023-12-20T11:01:13;2.60;;;1.50;;
17997;SDS011;9124;48.144;17.098;2023-12-20T11:10:49;1.60;;;1.50;;
17997;SDS011;9124;48.144;17.098;2023-12-20T11:15:35;2.33;;;1.90;;
17997;SDS011;9124;48.144;17.098;2023-12-20T11:20:05;1.90;;;1.80;;
17997;SDS011;9124;48.144;17.098;2023-12-20T11:24:32;1.60;;;1.50;;
17997;SDS011;9124;48.144;17.098;2023-12-20T11:34:12;1.42;;;1.33;;
17997;SDS011;9124;48.144;17.098;2023-12-20T11:38:56;1.75;;;1.65;;
17997;SDS011;9124;48.144;17.098;2023-12-20T11:48:04;3.05;;;2.28;;
17997;SDS011;9124;48.144;17.098;2023-12-20T11:52:31;1.73;;;1.63;;
17997;SDS011;9124;48.144;17.098;2023-12-20T11:56:59;2.50;;;2.13;;
17997;SDS011;9124;48.144;17.098;2023-12-20T12:01:25;2.08;;;1.98;;
17997;SDS011;9124;48.144;17.098;2023-12-20T12:05:51;2.22;;;2.03;;
17997;SDS011;9124;48.144;17.098;2023-12-20T12:10:18;2.45;;;1.95;;
17997;SDS011;9124;48.144;17.098;2023-12-20T12:14:45;1.48;;;1.38;;
17997;SDS011;9124;48.144;17.098;2023-12-20T12:19:22;1.48;;;1.45;;
17997;SDS011;9124;48.144;17.098;2023-12-20T12:23:49;1.70;;;1.60;;
17997;SDS011;9124;48.144;17.098;2023-12-20T12:28:16;1.13;;;1.13;;
17997;SDS011;9124;48.144;17.098;2023-12-20T12:32:42;1.30;;;1.27;;
17997;SDS011;9124;48.144;17.098;2023-12-20T12:37:13;1.60;;;1.50;;
17997;SDS011;9124;48.144;17.098;2023-12-20T12:41:39;1.63;;;1.55;;
17997;SDS011;9124;48.144;17.098;2023-12-20T12:46:06;2.38;;;1.58;;
17997;SDS011;9124;48.144;17.098;2023-12-20T12:50:32;1.50;;;1.40;;
17997;SDS011;9124;48.144;17.098;2023-12-20T12:54:58;1.70;;;1.60;;
17997;SDS011;9124;48.144;17.098;2023-12-20T12:59:24;1.15;;;1.15;;
17997;SDS011;9124;48.144;17.098;2023-12-20T13:03:57;1.63;;;1.52;;
17997;SDS011;9124;48.144;17.098;2023-12-20T13:08:23;1.55;;;1.45;;
17997;SDS011;9124;48.144;17.098;2023-12-20T13:12:49;3.08;;;1.40;;
17997;SDS011;9124;48.144;17.098;2023-12-20T13:17:16;1.27;;;1.20;;
17997;SDS011;9124;48.144;17.098;2023-12-20T13:21:43;1.30;;;1.30;;
17997;SDS011;9124;48.144;17.098;2023-12-20T13:26:09;1.90;;;1.80;;
17997;SDS011;9124;48.144;17.098;2023-12-20T13:30:36;1.10;;;1.10;;
17997;SDS011;9124;48.144;17.098;2023-12-20T13:35:02;0.95;;;0.95;;
17997;SDS011;9124;48.144;17.098;2023-12-20T13:39:30;1.75;;;1.20;;
17997;SDS011;9124;48.144;17.098;2023-12-20T13:43:56;1.40;;;1.30;;
17997;SDS011;9124;48.144;17.098;2023-12-20T13:48:24;1.23;;;1.20;;
17997;SDS011;9124;48.144;17.098;2023-12-20T13:52:50;1.30;;;1.20;;
17997;SDS011;9124;48.144;17.098;2023-12-20T13:57:19;1.38;;;1.27;;
17997;SDS011;9124;48.144;17.098;2023-12-20T14:01:45;1.10;;;1.10;;
17997;SDS011;9124;48.144;17.098;2023-12-20T14:06:12;1.35;;;1.35;;
17997;SDS011;9124;48.144;17.098;2023-12-20T14:10:42;1.00;;;1.00;;
17997;SDS011;9124;48.144;17.098;2023-12-20T14:15:08;1.20;;;1.20;;
17997;SDS011;9124;48.144;17.098;2023-12-20T14:19:38;1.63;;;1.52;;
17997;SDS011;9124;48.144;17.098;2023-12-20T14:24:05;1.30;;;1.20;;
17997;SDS011;9124;48.144;17.098;2023-12-20T14:28:33;1.58;;;1.48;;
17997;SDS011;9124;48.144;17.098;2023-12-20T14:32:59;1.30;;;1.20;;
17997;SDS011;9124;48.144;17.098;2023-12-20T14:37:26;1.20;;;1.13;;
17997;SDS011;9124;48.144;17.098;2023-12-20T14:41:52;1.05;;;1.05;;
17997;SDS011;9124;48.144;17.098;2023-12-20T14:46:20;1.35;;;1.25;;
17997;SDS011;9124;48.144;17.098;2023-12-20T14:50:46;0.90;;;0.90;;
17997;SDS011;9124;48.144;17.098;2023-12-20T14:55:14;0.60;;;0.60;;
17997;SDS011;9124;48.144;17.098;2023-12-20T14:59:41;0.80;;;0.80;;
17997;SDS011;9124;48.144;17.098;2023-12-20T15:04:13;0.90;;;0.80;;
17997;SDS011;9124;48.144;17.098;2023-12-20T15:08:39;0.85;;;0.85;;
17997;SDS011;9124;48.144;17.098;2023-12-20T15:13:07;1.30;;;1.20;;
17997;SDS011;9124;48.144;17.098;2023-12-20T15:17:33;1.20;;;1.10;;
17997;SDS011;9124;48.144;17.098;2023-12-20T15:22:01;1.10;;;1.02;;
17997;SDS011;9124;48.144;17.098;2023-12-20T15:26:29;1.45;;;1.23;;
17997;SDS011;9124;48.144;17.098;2023-12-20T15:31:00;1.35;;;1.35;;
17997;SDS011;9124;48.144;17.098;2023-12-20T15:35:26;1.40;;;1.30;;
17997;SDS011;9124;48.144;17.098;2023-12-20T15:39:53;1.60;;;1.50;;
17997;SDS011;9124;48.144;17.098;2023-12-20T15:44:19;2.45;;;1.55;;
17997;SDS011;9124;48.144;17.098;2023-12-20T15:48:46;1.40;;;1.30;;
17997;SDS011;9124;48.144;17.098;2023-12-20T15:53:12;1.67;;;1.38;;
17997;SDS011;9124;48.144;17.098;2023-12-20T15:57:38;1.48;;;1.38;;
17997;SDS011;9124;48.144;17.098;2023-12-20T16:02:05;1.23;;;1.23;;
17997;SDS011;9124;48.144;17.098;2023-12-20T16:06:31;1.30;;;1.00;;
17997;SDS011;9124;48.144;17.098;2023-12-20T16:11:00;1.08;;;1.00;;
17997;SDS011;9124;48.144;17.098;2023-12-20T16:15:26;1.23;;;1.08;;
17997;SDS011;9124;48.144;17.098;2023-12-20T16:19:54;1.33;;;1.20;;
17997;SDS011;9124;48.144;17.098;2023-12-20T16:24:20;1.08;;;1.08;;
17997;SDS011;9124;48.144;17.098;2023-12-20T16:28:47;1.10;;;1.00;;
17997;SDS011;9124;48.144;17.098;2023-12-20T16:33:13;0.50;;;0.50;;
17997;SDS011;9124;48.144;17.098;2023-12-20T16:37:40;0.57;;;0.57;;
17997;SDS011;9124;48.144;17.098;2023-12-20T16:42:07;0.95;;;0.95;;
17997;SDS011;9124;48.144;17.098;2023-12-20T16:46:33;1.30;;;0.82;;
17997;SDS011;9124;48.144;17.098;2023-12-20T16:50:59;1.00;;;1.00;;
17997;SDS011;9124;48.144;17.098;2023-12-20T16:55:29;0.93;;;0.93;;
17997;SDS011;9124;48.144;17.098;2023-12-20T16:59:56;0.77;;;0.77;;
17997;SDS011;9124;48.144;17.098;2023-12-20T17:04:23;0.80;;;0.80;;
17997;SDS011;9124;48.144;17.098;2023-12-20T17:08:49;1.65;;;0.98;;
17997;SDS011;9124;48.144;17.098;2023-12-20T17:13:16;1.30;;;1.20;;
17997;SDS011;9124;48.144;17.098;2023-12-20T17:17:42;1.02;;;1.02;;
17997;SDS011;9124;48.144;17.098;2023-12-20T17:22:09;1.88;;;1.77;;
17997;SDS011;9124;48.144;17.098;2023-12-20T17:26:35;1.48;;;1.38;;
17997;SDS011;9124;48.144;17.098;2023-12-20T17:31:01;2.45;;;1.80;;
17997;SDS011;9124;48.144;17.098;2023-12-20T17:35:28;1.92;;;1.83;;
17997;SDS011;9124;48.144;17.098;2023-12-20T17:39:55;2.13;;;1.92;;
17997;SDS011;9124;48.144;17.098;2023-12-20T17:44:21;1.35;;;1.33;;
17997;SDS011;9124;48.144;17.098;2023-12-20T17:48:48;2.20;;;2.10;;
17997;SDS011;9124;48.144;17.098;2023-12-20T17:53:14;2.10;;;2.00;;
17997;SDS011;9124;48.144;17.098;2023-12-20T17:57:42;2.30;;;2.20;;
17997;SDS011;9124;48.144;17.098;2023-12-20T18:02:08;1.98;;;1.88;;
17997;SDS011;9124;48.144;17.098;2023-12-20T18:06:37;2.40;;;2.22;;
17997;SDS011;9124;48.144;17.098;2023-12-20T18:11:07;3.17;;;1.80;;
17997;SDS011;9124;48.144;17.098;2023-12-20T18:15:33;1.85;;;1.75;;
17997;SDS011;9124;48.144;17.098;2023-12-20T18:20:02;2.58;;;2.38;;
17997;SDS011;9124;48.144;17.098;2023-12-20T18:24:29;1.85;;;1.75;;
17997;SDS011;9124;48.144;17.098;2023-12-20T18:28:55;1.90;;;1.65;;
17997;SDS011;9124;48.144;17.098;2023-12-20T18:33:22;2.30;;;2.20;;
17997;SDS011;9124;48.144;17.098;2023-12-20T18:37:48;2.25;;;2.15;;
17997;SDS011;9124;48.144;17.098;2023-12-20T18:42:15;2.45;;;1.88;;
17997;SDS011;9124;48.144;17.098;2023-12-20T18:46:43;4.07;;;0.95;;
17997;SDS011;9124;48.144;17.098;2023-12-20T18:51:10;1.17;;;0.98;;
17997;SDS011;9124;48.144;17.098;2023-12-20T18:55:36;5.15;;;1.50;;
17997;SDS011;9124;48.144;17.098;2023-12-20T19:00:03;1.00;;;1.00;;
17997;SDS011;9124;48.144;17.098;2023-12-20T19:04:30;1.05;;;0.98;;
17997;SDS011;9124;48.144;17.098;2023-12-20T19:08:56;2.28;;;1.20;;
17997;SDS011;9124;48.144;17.098;2023-12-20T19:13:23;0.90;;;0.80;;
17997;SDS011;9124;48.144;17.098;2023-12-20T19:17:56;2.63;;;1.00;;
17997;SDS011;9124;48.144;17.098;2023-12-20T19:22:23;1.10;;;1.00;;
17997;SDS011;9124;48.144;17.098;2023-12-20T19:26:52;0.85;;;0.82;;
17997;SDS011;9124;48.144;17.098;2023-12-20T19:31:19;1.08;;;0.85;;
17997;SDS011;9124;48.144;17.098;2023-12-20T19:35:46;2.88;;;0.93;;
17997;SDS011;9124;48.144;17.098;2023-12-20T19:40:12;2.63;;;1.00;;
17997;SDS011;9124;48.144;17.098;2023-12-20T19:44:38;1.20;;;1.00;;
17997;SDS011;9124;48.144;17.098;2023-12-20T19:49:08;1.17;;;1.08;;
17997;SDS011;9124;48.144;17.098;2023-12-20T19:53:35;1.40;;;1.10;;
17997;SDS011;9124;48.144;17.098;2023-12-20T19:58:02;1.10;;;1.00;;
17997;SDS011;9124;48.144;17.098;2023-12-20T20:02:29;1.30;;;1.10;;
17997;SDS011;9124;48.144;17.098;2023-12-20T20:06:55;1.20;;;1.10;;
17997;SDS011;9124;48.144;17.098;2023-12-20T20:11:22;3.45;;;1.38;;
17997;SDS011;9124;48.144;17.098;2023-12-20T20:15:48;1.58;;;1.40;;
17997;SDS011;9124;48.144;17.098;2023-12-20T20:20:16;2.38;;;1.35;;
17997;SDS011;9124;48.144;17.098;2023-12-20T20:24:42;3.53;;;2.20;;
17997;SDS011;9124;48.144;17.098;2023-12-20T20:29:09;7.13;;;1.73;;
17997;SDS011;9124;48.144;17.098;2023-12-20T20:33:35;2.15;;;1.60;;
17997;SDS011;9124;48.144;17.098;2023-12-20T20:38:04;2.22;;;1.10;;
17997;SDS011;9124;48.144;17.098;2023-12-20T20:42:30;2.20;;;1.23;;
17997;SDS011;9124;48.144;17.098;2023-12-20T20:46:58;0.90;;;0.80;;
17997;SDS011;9124;48.144;17.098;2023-12-20T20:51:24;8.20;;;1.30;;
17997;SDS011;9124;48.144;17.098;2023-12-20T20:55:51;1.88;;;1.20;;
17997;SDS011;9124;48.144;17.098;2023-12-20T21:00:18;1.13;;;1.02;;
17997;SDS011;9124;48.144;17.098;2023-12-20T21:04:47;1.30;;;1.17;;
17997;SDS011;9124;48.144;17.098;2023-12-20T21:09:16;1.55;;;1.45;;
17997;SDS011;9124;48.144;17.098;2023-12-20T21:13:43;5.13;;;1.50;;
17997;SDS011;9124;48.144;17.098;2023-12-20T21:18:13;3.40;;;1.58;;
17997;SDS011;9124;48.144;17.098;2023-12-20T21:22:41;2.10;;;1.40;;
17997;SDS011;9124;48.144;17.098;2023-12-20T21:27:07;2.53;;;1.40;;
17997;SDS011;9124;48.144;17.098;2023-12-20T21:31:34;3.72;;;1.25;;
17997;SDS011;9124;48.144;17.098;2023-12-20T21:36:00;1.65;;;1.42;;
17997;SDS011;9124;48.144;17.098;2023-12-20T21:40:27;3.13;;;1.48;;
17997;SDS011;9124;48.144;17.098;2023-12-20T21:44:55;5.38;;;1.88;;
17997;SDS011;9124;48.144;17.098;2023-12-20T21:49:22;2.28;;;1.05;;
17997;SDS011;9124;48.144;17.098;2023-12-20T21:53:48;1.33;;;1.20;;
17997;SDS011;9124;48.144;17.098;2023-12-20T21:58:15;4.75;;;1.50;;
17997;SDS011;9124;48.144;17.098;2023-12-20T22:02:41;3.40;;;1.77;;
17997;SDS011;9124;48.144;17.098;2023-12-20T22:07:09;2.05;;;1.42;;
17997;SDS011;9124;48.144;17.098;2023-12-20T22:11:39;2.78;;;1.45;;
17997;SDS011;9124;48.144;17.098;2023-12-20T22:16:06;5.05;;;2.20;;
17997;SDS011;9124;48.144;17.098;2023-12-20T22:20:33;2.50;;;1.50;;
17997;SDS011;9124;48.144;17.098;2023-12-20T22:25:02;3.70;;;1.42;;
17997;SDS011;9124;48.144;17.098;2023-12-20T22:29:30;4.18;;;1.83;;
17997;SDS011;9124;48.144;17.098;2023-12-20T22:33:56;3.55;;;1.48;;
17997;SDS011;9124;48.144;17.098;2023-12-20T22:38:25;1.77;;;1.67;;
17997;SDS011;9124;48.144;17.098;2023-12-20T22:42:52;2.97;;;1.80;;
17997;SDS011;9124;48.144;17.098;2023-12-20T22:47:19;2.05;;;1.33;;
17997;SDS011;9124;48.144;17.098;2023-12-20T22:51:45;3.33;;;1.30;;
17997;SDS011;9124;48.144;17.098;2023-12-20T22:56:13;1.65;;;1.27;;
17997;SDS011;9124;48.144;17.098;2023-12-20T23:00:40;2.95;;;0.93;;
17997;SDS011;9124;48.144;17.098;2023-12-20T23:05:08;1.67;;;1.15;;
17997;SDS011;9124;48.144;17.098;2023-12-20T23:09:34;1.20;;;1.10;;
17997;SDS011;9124;48.144;17.098;2023-12-20T23:14:03;2.05;;;1.42;;
17997;SDS011;9124;48.144;17.098;2023-12-20T23:18:29;2.88;;;1.33;;
17997;SDS011;9124;48.144;17.098;2023-12-20T23:22:56;2.08;;;1.30;;
17997;SDS011;9124;48.144;17.098;2023-12-20T23:27:22;2.15;;;1.10;;
17997;SDS011;9124;48.144;17.098;2023-12-20T23:31:50;1.10;;;1.00;;
17997;SDS011;9124;48.144;17.098;2023-12-20T23:36:16;1.65;;;1.10;;
17997;SDS011;9124;48.144;17.098;2023-12-20T23:40:43;3.85;;;1.40;;
17997;SDS011;9124;48.144;17.098;2023-12-20T23:45:10;4.25;;;1.30;;
17997;SDS011;9124;48.144;17.098;2023-12-20T23:49:39;1.77;;;1.00;;
17997;SDS011;9124;48.144;17.098;2023-12-20T23:54:05;1.40;;;1.00;;
17997;SDS011;9124;48.144;17.098;2023-12-20T23:58:34;1.88;;;1.23;;
